createdAt,value
2018-06-18T00:01:00.282Z,97340.98
2018-06-18T00:03:31.219Z,97343.58
2018-06-18T00:06:02.611Z,97339.38
2018-06-18T00:08:32.611Z,97340.22
2018-06-18T00:11:03.253Z,97346.27
2018-06-18T00:13:33.166Z,97346.31
2018-06-18T00:16:04.853Z,97347.20
2018-06-18T00:18:34.825Z,97340.78
2018-06-18T00:21:06.335Z,97344.58
2018-06-18T00:23:36.324Z,97349.31
2018-06-18T00:26:06.456Z,97348.03
2018-06-18T00:28:38.341Z,97353.23
2018-06-18T00:31:10.193Z,97351.53
2018-06-18T00:33:39.965Z,97359.66
2018-06-18T00:36:09.909Z,97361.34
2018-06-18T00:38:40.619Z,97356.20
2018-06-18T00:41:12.009Z,97349.78
2018-06-18T00:43:45.287Z,97354.07
2018-06-18T00:46:15.849Z,97358.38
2018-06-18T00:48:45.795Z,97351.55
2018-06-18T00:51:17.382Z,97353.69
2018-06-18T00:53:50.540Z,97352.45
2018-06-18T00:56:20.362Z,97345.20
2018-06-18T00:58:50.331Z,97352.86
2018-06-18T01:01:20.992Z,97349.00
2018-06-18T01:03:50.718Z,97346.53
2018-06-18T01:06:21.298Z,97350.39
2018-06-18T01:08:52.343Z,97347.38
2018-06-18T01:11:22.748Z,97348.69
2018-06-18T01:13:54.079Z,97345.72
2018-06-18T01:16:24.524Z,97353.47
2018-06-18T01:18:54.447Z,97350.95
2018-06-18T01:21:25.756Z,97352.68
2018-06-18T01:24:02.744Z,97356.98
2018-06-18T01:26:33.289Z,97353.56
2018-06-18T01:29:03.332Z,97354.41
2018-06-18T01:31:33.979Z,97357.84
2018-06-18T01:34:04.871Z,97356.13
2018-06-18T01:36:35.031Z,97357.86
2018-06-18T01:39:06.453Z,97360.45
2018-06-18T01:41:37.057Z,97359.59
2018-06-18T01:44:08.925Z,97363.00
2018-06-18T01:46:40.263Z,97357.92
2018-06-18T01:49:12.029Z,97354.52
2018-06-18T01:51:43.998Z,97357.04
2018-06-18T01:54:15.461Z,97343.41
2018-06-18T01:56:45.461Z,97351.45
2018-06-18T01:59:17.129Z,97348.47
2018-06-18T02:01:46.953Z,97357.88
2018-06-18T02:04:17.138Z,97359.99
2018-06-18T02:06:47.065Z,97357.88
2018-06-18T02:09:17.051Z,97358.78
2018-06-18T02:11:47.814Z,97356.23
2018-06-18T02:14:19.281Z,97359.66
2018-06-18T02:16:49.868Z,97358.80
2018-06-18T02:19:20.020Z,97361.81
2018-06-18T02:21:49.601Z,97359.70
2018-06-18T02:24:20.449Z,97354.56
2018-06-18T02:27:21.918Z,97351.16
2018-06-18T02:29:57.426Z,97357.19
2018-06-18T02:32:32.502Z,97355.50
2018-06-18T02:35:07.331Z,97356.35
2018-06-18T02:37:42.871Z,97355.08
2018-06-18T02:40:17.826Z,97358.93
2018-06-18T02:42:49.579Z,97361.48
2018-06-18T02:45:19.845Z,97367.50
2018-06-18T02:47:49.814Z,97358.93
2018-06-18T02:50:19.981Z,97372.59
2018-06-18T02:52:52.801Z,97371.73
2018-06-18T02:55:23.062Z,97377.70
2018-06-18T02:57:54.583Z,97379.81
2018-06-18T03:00:25.321Z,97383.69
2018-06-18T03:02:56.004Z,97386.27
2018-06-18T03:05:26.612Z,97386.73
2018-06-18T03:07:56.468Z,97386.30
2018-06-18T03:10:26.344Z,97393.20
2018-06-18T03:12:56.901Z,97394.05
2018-06-18T03:15:27.412Z,97400.46
2018-06-18T03:17:58.024Z,97397.49
2018-06-18T03:20:32.794Z,97406.02
2018-06-18T03:23:08.519Z,97403.47
2018-06-18T03:25:45.065Z,97404.39
2018-06-18T03:28:20.086Z,97402.28
2018-06-18T03:30:50.446Z,97398.43
2018-06-18T03:33:22.086Z,97401.91
2018-06-18T03:35:58.198Z,97409.61
2018-06-18T03:38:30.578Z,97406.16
2018-06-18T03:41:01.864Z,97411.30
2018-06-18T03:43:33.995Z,97412.98
2018-06-18T03:46:09.402Z,97407.45
2018-06-18T03:48:40.157Z,97419.00
2018-06-18T03:51:09.935Z,97418.20
2018-06-18T03:53:39.749Z,97415.64
2018-06-18T03:56:10.505Z,97419.09
2018-06-18T03:58:40.575Z,97423.37
2018-06-18T04:01:39.850Z,97422.92
2018-06-18T04:04:18.471Z,97422.48
2018-06-18T04:06:55.316Z,97425.09
2018-06-18T04:09:30.925Z,97421.65
2018-06-18T04:12:09.875Z,97431.06
2018-06-18T04:14:45.501Z,97416.52
2018-06-18T04:17:16.540Z,97425.45
2018-06-18T04:19:47.115Z,97428.38
2018-06-18T04:22:20.370Z,97426.25
2018-06-18T04:24:51.020Z,97429.20
2018-06-18T04:27:22.136Z,97422.33
2018-06-18T04:29:54.401Z,97423.98
2018-06-18T04:32:26.996Z,97420.89
2018-06-18T04:35:00.089Z,97426.38
2018-06-18T04:37:30.236Z,97424.11
2018-06-18T04:40:00.111Z,97428.69
2018-06-18T04:42:35.048Z,97422.65
2018-06-18T04:45:10.242Z,97423.02
2018-06-18T04:47:45.182Z,97421.28
2018-06-18T04:50:20.112Z,97425.28
2018-06-18T04:52:51.388Z,97427.77
2018-06-18T04:55:21.897Z,97425.24
2018-06-18T04:57:52.515Z,97424.34
2018-06-18T05:01:06.472Z,97422.55
2018-06-18T05:03:36.495Z,97433.61
2018-06-18T05:06:06.437Z,97434.80
2018-06-18T05:08:45.743Z,97443.84
2018-06-18T05:11:16.531Z,97450.66
2018-06-18T05:13:48.909Z,97450.64
2018-06-18T05:16:19.414Z,97445.51
2018-06-18T05:38:33.459Z,97449.81
2018-06-18T05:41:04.119Z,97447.23
2018-06-18T05:43:34.745Z,97445.89
2018-06-18T05:46:04.643Z,97449.64
2018-06-18T05:48:34.571Z,97448.75
2018-06-18T05:51:05.103Z,97450.69
2018-06-18T05:53:35.824Z,97447.23
2018-06-18T05:56:05.637Z,97454.43
2018-06-18T05:58:40.794Z,97462.52
2018-06-18T06:01:11.075Z,97455.58
2018-06-18T06:03:44.037Z,97453.14
2018-06-18T06:06:14.728Z,97451.41
2018-06-18T06:08:44.566Z,97456.53
2018-06-18T06:11:15.015Z,97455.61
2018-06-18T06:13:46.642Z,97462.09
2018-06-18T06:16:16.857Z,97461.67
2018-06-18T06:18:47.487Z,97466.70
2018-06-18T06:21:19.242Z,97466.56
2018-06-18T06:23:49.701Z,97467.25
2018-06-18T06:26:21.673Z,97464.05
2018-06-18T06:28:52.229Z,97463.13
2018-06-18T06:31:22.712Z,97463.94
2018-06-18T06:33:53.217Z,97459.08
2018-06-18T06:36:26.123Z,97461.08
2018-06-18T06:38:57.671Z,97459.48
2018-06-18T06:41:29.665Z,97463.80
2018-06-18T06:44:00.160Z,97460.34
2018-06-18T06:46:31.645Z,97474.14
2018-06-18T06:49:01.603Z,97468.99
2018-06-18T06:51:31.599Z,97473.62
2018-06-18T06:54:01.657Z,97471.16
2018-06-18T06:56:31.652Z,97476.09
2018-06-18T06:59:01.887Z,97482.77
2018-06-18T07:01:33.730Z,97482.52
2018-06-18T07:04:04.635Z,97495.16
2018-06-18T07:06:35.255Z,97493.17
2018-06-18T07:09:14.056Z,97494.03
2018-06-18T07:11:45.524Z,97497.25
2018-06-18T07:14:15.443Z,97491.03
2018-06-18T07:16:46.285Z,97498.86
2018-06-18T07:19:16.162Z,97505.20
2018-06-18T07:21:46.156Z,97509.42
2018-06-18T07:24:20.624Z,97507.38
2018-06-18T07:26:51.107Z,97507.38
2018-06-18T07:29:20.964Z,97507.31
2018-06-18T07:31:51.708Z,97514.05
2018-06-18T07:34:21.756Z,97518.20
2018-06-18T07:36:51.639Z,97513.94
2018-06-18T07:39:29.038Z,97521.95
2018-06-18T07:41:59.123Z,97521.91
2018-06-18T07:44:30.023Z,97521.51
2018-06-18T07:47:00.548Z,97524.95
2018-06-18T07:49:31.192Z,97521.80
2018-06-18T07:52:02.526Z,97525.03
2018-06-18T07:54:33.006Z,97523.60
2018-06-18T07:57:02.789Z,97531.44
2018-06-18T07:59:32.729Z,97524.67
2018-06-18T08:02:04.161Z,97524.60
2018-06-18T08:04:35.021Z,97530.41
2018-06-18T08:07:06.579Z,97538.14
2018-06-18T08:09:37.642Z,97529.05
2018-06-18T08:12:08.681Z,97526.53
2018-06-18T08:14:40.121Z,97533.25
2018-06-18T08:17:14.045Z,97533.92
2018-06-18T08:19:44.615Z,97539.72
2018-06-18T08:22:25.583Z,97542.21
2018-06-18T08:24:57.143Z,97537.80
2018-06-18T08:27:27.788Z,97532.70
2018-06-18T08:29:57.712Z,97533.05
2018-06-18T08:32:27.676Z,97541.73
2018-06-18T08:34:59.313Z,97542.72
2018-06-18T08:37:32.160Z,97539.43
2018-06-18T08:40:04.755Z,97536.96
2018-06-18T08:42:35.332Z,97538.22
2018-06-18T08:45:05.776Z,97533.78
2018-06-18T08:47:36.630Z,97534.39
2018-06-18T08:50:11.652Z,97535.78
2018-06-18T08:52:46.533Z,97535.08
2018-06-18T08:55:22.217Z,97538.31
2018-06-18T08:57:57.209Z,97532.59
2018-06-18T09:00:32.236Z,97536.51
2018-06-18T09:03:10.295Z,97539.55
2018-06-18T09:05:44.280Z,97527.73
2018-06-18T09:08:21.054Z,97532.84
2018-06-18T09:10:52.374Z,97534.52
2018-06-18T09:13:23.241Z,97521.61
2018-06-18T09:15:57.876Z,97523.94
2018-06-18T09:18:27.689Z,97516.27
2018-06-18T09:20:57.778Z,97519.99
2018-06-18T09:23:28.206Z,97515.06
2018-06-18T09:25:58.137Z,97524.92
2018-06-18T09:28:30.563Z,97522.72
2018-06-18T09:31:01.270Z,97526.56
2018-06-18T09:33:33.089Z,97525.39
2018-06-18T09:36:02.705Z,97522.62
2018-06-18T09:38:32.513Z,97520.30
2018-06-18T09:41:04.150Z,97516.67
2018-06-18T09:43:43.999Z,97523.75
2018-06-18T09:46:15.258Z,97524.95
2018-06-18T09:48:50.913Z,97520.32
2018-06-18T09:51:26.568Z,97521.45
2018-06-18T09:54:01.279Z,97518.76
2018-06-18T09:59:09.769Z,97526.03
2018-06-18T10:01:39.711Z,97517.23
2018-06-18T10:04:09.692Z,97523.50
2018-06-18T10:06:40.990Z,97520.96
2018-06-18T10:09:18.685Z,97519.68
2018-06-18T10:11:49.235Z,97519.70
2018-06-18T10:14:19.257Z,97524.52
2018-06-18T10:16:49.256Z,97517.91
2018-06-18T10:19:21.067Z,97522.49
2018-06-18T10:21:50.857Z,97517.44
2018-06-18T10:24:21.432Z,97511.33
2018-06-18T10:26:52.803Z,97511.84
2018-06-18T10:29:24.195Z,97514.33
2018-06-18T10:31:53.884Z,97510.19
2018-06-18T10:34:28.771Z,97513.61
2018-06-18T10:37:04.268Z,97516.00
2018-06-18T10:39:39.242Z,97513.02
2018-06-18T10:42:14.327Z,97513.94
2018-06-18T10:44:44.296Z,97520.80
2018-06-18T10:47:17.888Z,97512.83
2018-06-18T10:49:47.770Z,97515.09
2018-06-18T10:52:17.984Z,97512.91
2018-06-18T10:54:47.870Z,97509.22
2018-06-18T10:57:17.434Z,97505.45
2018-06-18T10:59:47.383Z,97510.94
2018-06-18T11:02:18.725Z,97517.33
2018-06-18T11:04:55.230Z,97510.82
2018-06-18T11:07:25.922Z,97502.84
2018-06-18T11:09:55.748Z,97508.86
2018-06-18T11:12:25.442Z,97500.64
2018-06-18T11:14:55.315Z,97502.84
2018-06-18T11:18:33.726Z,97504.56
2018-06-18T11:21:18.276Z,97505.52
2018-06-18T11:23:53.334Z,97493.18
2018-06-18T11:26:29.144Z,97500.56
2018-06-18T11:29:00.899Z,97487.53
2018-06-18T11:31:37.390Z,97495.38
2018-06-18T11:34:07.939Z,97493.28
2018-06-18T11:36:39.919Z,97493.56
2018-06-18T11:41:48.312Z,97487.98
2018-06-18T11:44:19.758Z,97489.41
2018-06-18T11:46:49.809Z,97481.17
2018-06-18T11:49:20.471Z,97486.60
2018-06-18T11:51:50.556Z,97479.88
2018-06-18T11:54:23.591Z,97480.20
2018-06-18T11:56:54.877Z,97485.08
2018-06-18T11:59:34.014Z,97488.48
2018-06-18T12:02:09.960Z,97483.39
2018-06-18T12:04:44.933Z,97479.58
2018-06-18T12:07:20.447Z,97476.72
2018-06-18T12:09:52.888Z,97472.38
2018-06-18T12:12:22.917Z,97475.81
2018-06-18T12:14:55.358Z,97464.44
2018-06-18T12:17:25.839Z,97468.47
2018-06-18T12:19:57.353Z,97468.03
2018-06-18T12:22:27.954Z,97463.77
2018-06-18T12:24:58.604Z,97460.05
2018-06-18T12:27:31.663Z,97460.84
2018-06-18T12:30:02.713Z,97462.42
2018-06-18T12:32:35.492Z,97456.87
2018-06-18T12:35:06.270Z,97459.48
2018-06-18T12:37:36.882Z,97462.24
2018-06-18T12:40:09.047Z,97456.83
2018-06-18T12:42:38.852Z,97457.84
2018-06-18T12:45:14.646Z,97458.92
2018-06-18T12:47:50.333Z,97459.37
2018-06-18T12:50:25.860Z,97458.29
2018-06-18T12:55:43.111Z,97451.42
2018-06-18T12:58:13.032Z,97449.30
2018-06-18T13:00:44.277Z,97450.39
2018-06-18T13:03:16.931Z,97449.08
2018-06-18T13:05:47.610Z,97451.35
2018-06-18T13:08:18.363Z,97455.66
2018-06-18T13:10:48.326Z,97462.12
2018-06-18T13:13:20.727Z,97459.08
2018-06-18T13:15:51.383Z,97453.69
2018-06-18T13:18:23.843Z,97451.40
2018-06-18T13:20:54.840Z,97463.56
2018-06-18T13:23:26.433Z,97455.34
2018-06-18T13:25:57.114Z,97454.27
2018-06-18T13:28:29.479Z,97452.08
2018-06-18T13:30:59.539Z,97451.60
2018-06-18T13:33:30.707Z,97440.78
2018-06-18T13:36:01.472Z,97443.97
2018-06-18T13:38:39.209Z,97442.84
2018-06-18T13:41:15.415Z,97443.80
2018-06-18T13:43:52.257Z,97437.83
2018-06-18T13:46:27.343Z,97439.57
2018-06-18T13:48:58.319Z,97438.25
2018-06-18T13:51:28.651Z,97441.42
2018-06-18T13:53:59.513Z,97435.03
2018-06-18T13:56:30.313Z,97437.22
2018-06-18T13:59:01.033Z,97427.57
2018-06-18T14:01:31.471Z,97430.58
2018-06-18T14:04:03.704Z,97433.19
2018-06-18T14:06:35.415Z,97424.80
2018-06-18T14:09:06.769Z,97429.96
2018-06-18T14:11:37.682Z,97421.77
2018-06-18T14:14:09.060Z,97416.34
2018-06-18T14:16:40.387Z,97419.95
2018-06-18T14:19:15.024Z,97419.72
2018-06-18T14:21:45.064Z,97412.08
2018-06-18T14:24:17.705Z,97405.94
2018-06-18T14:26:48.724Z,97406.81
2018-06-18T14:29:27.955Z,97408.86
2018-06-18T14:32:01.442Z,97403.93
2018-06-18T14:34:36.441Z,97405.80
2018-06-18T14:37:11.370Z,97400.22
2018-06-18T14:39:46.382Z,97412.16
2018-06-18T14:42:16.479Z,97406.94
2018-06-18T14:44:46.429Z,97416.18
2018-06-18T14:47:17.154Z,97426.34
2018-06-18T14:49:47.042Z,97417.20
2018-06-18T14:52:17.775Z,97410.27
2018-06-18T14:54:48.232Z,97407.16
2018-06-18T14:57:20.393Z,97400.33
2018-06-18T14:59:58.447Z,97397.05
2018-06-18T15:02:28.975Z,97402.59
2018-06-18T15:04:59.303Z,97397.89
2018-06-18T15:07:30.901Z,97402.38
2018-06-18T15:10:01.588Z,97406.33
2018-06-18T15:12:35.880Z,97405.39
2018-06-18T15:15:11.122Z,97405.05
2018-06-18T15:17:43.488Z,97398.95
2018-06-18T15:20:15.361Z,97387.37
2018-06-18T15:22:51.310Z,97390.73
2018-06-18T15:25:22.040Z,97393.38
2018-06-18T15:27:52.029Z,97391.10
2018-06-18T15:30:23.874Z,97387.19
2018-06-18T15:32:54.726Z,97399.23
2018-06-18T15:35:26.020Z,97391.14
2018-06-18T15:37:57.407Z,97390.74
2018-06-18T15:40:29.795Z,97389.50
2018-06-18T15:42:59.863Z,97389.39
2018-06-18T15:45:29.777Z,97389.44
2018-06-18T15:47:59.657Z,97388.52
2018-06-18T15:50:29.694Z,97392.59
2018-06-18T15:53:01.199Z,97394.30
2018-06-18T15:55:31.774Z,97396.08
2018-06-18T15:58:02.429Z,97400.52
2018-06-18T16:00:32.234Z,97397.98
2018-06-18T16:03:02.020Z,97396.19
2018-06-18T16:05:32.825Z,97392.01
2018-06-18T16:08:02.709Z,97390.16
2018-06-18T16:10:34.030Z,97392.52
2018-06-18T16:13:05.148Z,97397.13
2018-06-18T16:15:35.910Z,97403.31
2018-06-18T16:18:06.116Z,97406.09
2018-06-18T16:20:36.018Z,97403.39
2018-06-18T16:23:07.321Z,97399.73
2018-06-18T16:25:36.924Z,97399.42
2018-06-18T16:28:06.579Z,97397.70
2018-06-18T16:30:38.057Z,97397.86
2018-06-18T16:33:07.730Z,97397.44
2018-06-18T16:35:38.263Z,97404.94
2018-06-18T16:38:12.024Z,97406.37
2018-06-18T16:40:48.086Z,97410.90
2018-06-18T16:43:19.340Z,97406.29
2018-06-18T16:45:50.508Z,97408.11
2018-06-18T16:48:21.947Z,97412.30
2018-06-18T16:50:52.425Z,97413.98
2018-06-18T16:53:26.597Z,97413.91
2018-06-18T16:55:57.155Z,97416.00
2018-06-18T16:58:30.882Z,97417.16
2018-06-18T17:01:02.445Z,97412.66
2018-06-18T17:03:32.128Z,97414.66
2018-06-18T17:06:03.588Z,97416.47
2018-06-18T17:08:33.721Z,97408.26
2018-06-18T17:11:04.590Z,97415.61
2018-06-18T17:13:38.963Z,97416.86
2018-06-18T17:16:10.400Z,97410.50
2018-06-18T17:18:40.540Z,97417.58
2018-06-18T17:21:11.327Z,97414.19
2018-06-18T17:23:43.882Z,97421.34
2018-06-18T17:26:13.801Z,97422.05
2018-06-18T17:28:43.791Z,97422.27
2018-06-18T17:31:15.172Z,97415.38
2018-06-18T17:33:45.887Z,97417.89
2018-06-18T17:36:20.821Z,97417.48
2018-06-18T17:38:51.571Z,97420.78
2018-06-18T17:41:22.319Z,97419.19
2018-06-18T17:43:57.535Z,97413.95
2018-06-18T17:46:29.510Z,97412.22
2018-06-18T17:48:59.515Z,97417.09
2018-06-18T17:51:31.695Z,97415.67
2018-06-18T17:54:01.588Z,97420.16
2018-06-18T17:56:31.669Z,97424.09
2018-06-18T17:59:02.401Z,97425.52
2018-06-18T18:01:32.327Z,97435.67
2018-06-18T18:04:04.751Z,97435.56
2018-06-18T18:06:35.491Z,97433.47
2018-06-18T18:09:09.186Z,97435.84
2018-06-18T18:11:41.001Z,97434.23
2018-06-18T18:14:11.071Z,97438.71
2018-06-18T18:16:41.625Z,97444.86
2018-06-18T18:19:17.144Z,97440.77
2018-06-18T18:21:49.558Z,97440.93
2018-06-18T18:24:19.675Z,97441.16
2018-06-18T18:26:49.410Z,97443.05
2018-06-18T18:29:22.874Z,97433.02
2018-06-18T18:31:52.916Z,97438.23
2018-06-18T18:34:27.404Z,97440.95
2018-06-18T18:36:57.945Z,97444.95
2018-06-18T18:39:29.476Z,97447.20
2018-06-18T18:42:00.793Z,97456.83
2018-06-18T18:44:37.131Z,97446.63
2018-06-18T18:47:09.984Z,97453.63
2018-06-18T18:49:40.736Z,97452.53
2018-06-18T18:52:13.493Z,97462.14
2018-06-18T18:56:02.346Z,97455.79
2018-06-18T18:59:40.005Z,97464.59
2018-06-18T19:02:10.234Z,97461.39
2018-06-18T19:07:51.462Z,97468.50
2018-06-18T19:10:27.789Z,97470.41
2018-06-18T19:12:59.266Z,97472.35
2018-06-18T19:15:30.469Z,97466.84
2018-06-18T19:18:00.329Z,97475.16
2018-06-18T19:34:37.427Z,97490.62
2018-06-18T19:37:08.902Z,97503.67
2018-06-18T19:39:44.838Z,97499.46
2018-06-18T19:42:15.979Z,97500.00
2018-06-18T19:44:49.036Z,97499.30
2018-06-18T19:47:37.665Z,97504.66
2018-06-18T19:50:09.646Z,97509.17
2018-06-18T19:52:41.274Z,97511.53
2018-06-18T19:55:20.366Z,97510.82
2018-06-18T19:57:53.063Z,97515.22
2018-06-18T20:00:27.895Z,97517.47
2018-06-18T20:02:58.857Z,97515.39
2018-06-18T20:05:29.743Z,97522.36
2018-06-18T20:08:03.319Z,97523.33
2018-06-18T20:10:33.297Z,97529.47
2018-06-18T20:13:06.767Z,97524.84
2018-06-18T20:15:37.236Z,97524.08
2018-06-18T20:18:08.766Z,97527.17
2018-06-18T20:20:39.186Z,97529.81
2018-06-18T20:23:12.278Z,97533.77
2018-06-18T20:25:58.316Z,97534.69
2018-06-18T20:28:28.058Z,97540.39
2018-06-18T20:30:59.747Z,97546.48
2018-06-18T20:33:31.156Z,97539.73
2018-06-18T20:36:10.712Z,97537.30
2018-06-18T20:38:40.768Z,97542.56
2018-06-18T20:41:12.502Z,97544.33
2018-06-18T20:43:51.729Z,97539.69
2018-06-18T20:46:23.395Z,97553.94
2018-06-18T20:48:53.605Z,97548.47
2018-06-18T20:51:24.644Z,97546.35
2018-06-18T20:53:54.654Z,97545.52
2018-06-18T20:56:25.498Z,97552.41
2018-06-18T20:58:55.160Z,97553.30
2018-06-18T21:01:25.339Z,97552.09
2018-06-18T21:03:56.281Z,97560.30
2018-06-18T21:06:26.295Z,97558.67
2018-06-18T21:08:57.011Z,97568.17
2018-06-18T21:11:27.812Z,97563.94
2018-06-18T21:13:58.201Z,97566.99
2018-06-18T21:16:31.435Z,97569.20
2018-06-18T21:19:02.163Z,97567.51
2018-06-18T21:21:32.582Z,97567.58
2018-06-18T21:24:06.491Z,97576.16
2018-06-18T21:26:39.730Z,97572.25
2018-06-18T21:29:10.683Z,97571.86
2018-06-18T21:31:43.982Z,97574.46
2018-06-18T21:34:15.357Z,97579.66
2018-06-18T21:36:47.995Z,97582.30
2018-06-18T21:39:20.671Z,97576.41
2018-06-18T21:41:50.688Z,97585.87
2018-06-18T21:44:25.067Z,97583.37
2018-06-18T21:46:55.490Z,97581.81
2018-06-18T21:49:25.448Z,97584.47
2018-06-18T21:51:55.589Z,97583.19
2018-06-18T21:54:25.243Z,97587.11
2018-06-18T21:56:56.077Z,97582.82
2018-06-18T21:59:26.065Z,97582.86
2018-06-18T22:01:56.026Z,97587.15
2018-06-18T22:04:25.931Z,97582.02
2018-06-18T22:06:55.947Z,97584.17
2018-06-18T22:09:26.215Z,97589.75
2018-06-18T22:11:59.380Z,97579.52
2018-06-18T22:14:30.016Z,97582.09
2018-06-18T22:17:01.269Z,97583.84
2018-06-18T22:19:32.055Z,97578.77
2018-06-18T22:22:01.779Z,97583.05
2018-06-18T22:24:31.716Z,97583.05
2018-06-18T22:29:29.249Z,97586.11
2018-06-18T22:31:58.348Z,97589.17
2018-06-18T22:34:27.637Z,97584.91
2018-06-18T22:36:56.826Z,97582.36
2018-06-18T22:39:26.089Z,97582.39
2018-06-18T22:41:55.283Z,97585.37
2018-06-18T22:44:24.671Z,97585.81
2018-06-18T22:46:53.882Z,97582.43
2018-06-18T22:49:23.851Z,97595.28
2018-06-18T22:51:53.737Z,97588.43
2018-06-18T22:54:23.947Z,97595.30
2018-06-18T22:56:53.958Z,97603.84
2018-06-18T22:59:23.995Z,97595.33
2018-06-18T23:01:54.242Z,97603.02
2018-06-18T23:04:24.041Z,97606.45
2018-06-18T23:06:54.067Z,97611.17
2018-06-18T23:09:28.916Z,97602.61
2018-06-18T23:11:58.099Z,97592.77
2018-06-18T23:14:27.418Z,97604.75
2018-06-18T23:16:56.785Z,97599.22
2018-06-18T23:19:26.048Z,97600.95
2018-06-18T23:21:55.234Z,97590.31
2018-06-18T23:24:24.398Z,97609.09
2018-06-18T23:26:54.199Z,97603.95
2018-06-18T23:29:24.666Z,97609.92
2018-06-18T23:31:54.221Z,97603.97
2018-06-18T23:34:24.436Z,97603.16
2018-06-18T23:36:54.377Z,97609.97
2018-06-18T23:39:24.351Z,97609.57
2018-06-18T23:41:56.056Z,97610.84
2018-06-18T23:44:25.404Z,97605.33
2018-06-18T23:46:54.662Z,97606.60
2018-06-18T23:49:24.359Z,97610.91
2018-06-18T23:51:54.414Z,97614.35
2018-06-18T23:54:25.083Z,97612.67
2018-06-18T23:56:54.464Z,97607.53
2018-06-18T23:59:24.453Z,97609.24
